createdAt,value
2022-10-23T00:02:18.520Z,8.15
2022-10-23T00:04:51.462Z,5.40
2022-10-23T00:07:23.308Z,7.03
2022-10-23T00:09:55.152Z,8.95
2022-10-23T00:12:28.343Z,7.38
2022-10-23T00:15:00.157Z,6.22
2022-10-23T00:17:32.759Z,5.38
2022-10-23T00:20:05.786Z,9.43
2022-10-23T00:22:37.628Z,4.85
2022-10-23T00:25:10.805Z,4.88
2022-10-23T00:27:44.301Z,7.13
2022-10-23T00:30:16.380Z,7.70
2022-10-23T00:32:48.214Z,5.28
2022-10-23T00:35:19.973Z,5.78
2022-10-23T00:37:51.787Z,5.78
2022-10-23T00:40:23.640Z,5.50
2022-10-23T00:42:56.907Z,11.57
2022-10-23T00:45:33.887Z,6.68
2022-10-23T00:48:05.947Z,5.00
2022-10-23T00:50:38.002Z,4.40
2022-10-23T00:53:11.617Z,6.43
2022-10-23T00:55:46.862Z,3.70
2022-10-23T00:58:21.096Z,7.50
2022-10-23T01:00:54.791Z,7.43
2022-10-23T01:03:28.271Z,12.05
2022-10-23T01:06:04.894Z,7.53
2022-10-23T01:08:43.925Z,7.80
2022-10-23T01:11:20.379Z,7.47
2022-10-23T01:14:04.693Z,6.03
2022-10-23T01:16:41.923Z,6.25
2022-10-23T01:19:21.742Z,9.25
2022-10-23T01:21:59.089Z,7.32
2022-10-23T01:24:47.489Z,6.18
2022-10-23T01:27:23.885Z,11.00
2022-10-23T01:30:05.911Z,10.00
2022-10-23T01:32:44.486Z,9.70
2022-10-23T01:35:20.542Z,5.28
2022-10-23T01:37:59.017Z,13.13
2022-10-23T01:40:37.474Z,8.25
2022-10-23T01:43:14.147Z,7.78
2022-10-23T01:45:50.789Z,5.85
2022-10-23T01:48:26.238Z,7.60
2022-10-23T01:51:01.876Z,8.43
2022-10-23T01:53:38.492Z,8.52
2022-10-23T01:56:13.103Z,7.13
2022-10-23T01:58:49.864Z,6.68
2022-10-23T02:01:26.063Z,9.20
2022-10-23T02:04:00.300Z,9.25
2022-10-23T02:06:32.503Z,8.30
2022-10-23T02:09:04.473Z,7.28
2022-10-23T02:11:43.267Z,4.40
2022-10-23T02:14:23.155Z,4.47
2022-10-23T02:17:00.240Z,6.18
2022-10-23T02:19:38.166Z,7.18
2022-10-23T02:22:14.319Z,7.18
2022-10-23T02:24:50.662Z,5.65
2022-10-23T02:27:26.943Z,5.60
2022-10-23T02:30:05.908Z,5.72
2022-10-23T08:18:16.898Z,7.28
2022-10-23T08:20:52.339Z,4.07
2022-10-23T08:23:24.160Z,4.03
2022-10-23T08:26:01.097Z,6.13
2022-10-23T08:28:33.413Z,6.47
2022-10-23T08:34:41.891Z,5.15
2022-10-23T08:38:41.573Z,8.75
2022-10-23T08:41:22.882Z,3.10
2022-10-23T08:44:01.039Z,2.72
2022-10-23T08:47:01.939Z,4.72
2022-10-23T08:49:45.474Z,4.10
2022-10-23T08:52:23.521Z,3.53
2022-10-23T08:55:03.837Z,4.50
2022-10-23T08:57:43.743Z,4.32
2022-10-23T09:00:17.593Z,3.60
2022-10-23T09:02:52.782Z,2.55
2022-10-23T09:05:31.099Z,5.78
2022-10-23T09:08:16.193Z,4.57
2022-10-23T09:11:03.342Z,4.45
2022-10-23T09:14:00.847Z,4.03
2022-10-23T09:16:45.676Z,5.15
2022-10-23T09:19:20.566Z,3.92
2022-10-23T09:21:53.243Z,2.67
2022-10-23T09:24:26.889Z,4.22
2022-10-23T09:27:00.509Z,3.65
2022-10-23T09:29:35.936Z,3.10
2022-10-23T09:32:07.837Z,7.72
2022-10-23T09:34:51.691Z,3.85
2022-10-23T09:37:26.127Z,2.85
2022-10-23T09:40:11.533Z,4.22
2022-10-23T09:42:55.367Z,5.38
2022-10-23T09:45:30.855Z,5.03
2022-10-23T09:48:20.350Z,4.32
2022-10-23T09:50:55.636Z,4.28
2022-10-23T09:53:37.148Z,5.00
2022-10-23T09:56:27.051Z,3.40
2022-10-23T09:59:00.882Z,2.80
2022-10-23T10:01:38.477Z,5.03
2022-10-23T10:04:10.644Z,10.02
2022-10-23T10:06:44.292Z,4.13
2022-10-23T10:09:17.224Z,4.10
2022-10-23T10:11:54.198Z,7.03
2022-10-23T10:14:42.858Z,2.38
2022-10-23T10:17:23.965Z,3.85
2022-10-23T10:20:40.730Z,4.15
2022-10-23T10:23:22.578Z,4.65
2022-10-23T10:26:02.644Z,2.90
2022-10-23T10:28:53.700Z,4.70
2022-10-23T10:31:36.087Z,1.90
2022-10-23T10:34:14.387Z,4.65
2022-10-23T10:36:52.988Z,2.42
2022-10-23T10:39:39.399Z,1.90
2022-10-23T10:42:39.894Z,5.70
2022-10-23T10:45:20.007Z,1.52
2022-10-23T10:48:11.441Z,3.13
2022-10-23T10:50:47.427Z,6.28
2022-10-23T10:53:28.097Z,2.03
2022-10-23T10:56:04.543Z,2.65
2022-10-23T10:58:40.259Z,3.47
2022-10-23T11:01:19.338Z,3.28
2022-10-23T11:03:57.000Z,2.45
2022-10-23T11:06:34.455Z,5.43
2022-10-23T11:09:20.751Z,1.65
2022-10-23T11:11:54.551Z,3.85
2022-10-23T11:14:29.046Z,2.60
2022-10-23T11:17:09.312Z,1.33
2022-10-23T11:19:45.967Z,1.63
2022-10-23T11:22:24.509Z,1.90
2022-10-23T11:25:29.347Z,2.03
2022-10-23T11:28:19.443Z,4.50
2022-10-23T11:31:11.683Z,1.50
2022-10-23T11:34:08.771Z,3.47
2022-10-23T11:36:46.709Z,4.68
2022-10-23T11:39:22.125Z,2.35
2022-10-23T11:41:56.499Z,3.03
2022-10-23T11:44:42.111Z,4.80
2022-10-23T11:47:29.314Z,1.90
2022-10-23T11:50:27.931Z,2.47
2022-10-23T11:53:19.922Z,2.65
2022-10-23T11:56:00.578Z,1.70
2022-10-23T11:58:43.788Z,3.25
2022-10-23T12:01:33.803Z,3.22
2022-10-23T12:04:20.286Z,3.72
2022-10-23T12:06:55.491Z,1.85
2022-10-23T12:09:31.990Z,2.45
2022-10-23T12:12:15.803Z,1.23
2022-10-23T12:14:49.710Z,1.50
2022-10-23T12:17:35.684Z,2.40
2022-10-23T12:20:31.768Z,4.82
2022-10-23T12:23:18.887Z,3.33
2022-10-23T12:26:05.154Z,3.38
2022-10-23T12:28:45.885Z,1.70
2022-10-23T12:31:27.662Z,1.60
2022-10-23T12:34:14.956Z,2.83
2022-10-23T12:36:59.461Z,2.38
2022-10-23T12:39:32.648Z,3.80
2022-10-23T12:44:36.781Z,5.35
2022-10-23T12:47:18.572Z,2.30
2022-10-23T12:49:52.386Z,1.33
2022-10-23T12:52:27.046Z,3.78
2022-10-23T12:54:59.412Z,1.73
2022-10-23T12:57:31.389Z,2.57
2022-10-23T13:00:10.510Z,2.00
2022-10-23T13:02:42.472Z,1.75
2022-10-23T13:05:19.152Z,4.47
2022-10-23T13:07:51.780Z,4.22
2022-10-23T13:10:24.754Z,1.38
2022-10-23T13:12:59.605Z,3.75
2022-10-23T13:15:39.095Z,3.22
2022-10-23T13:18:14.060Z,3.65
2022-10-23T13:20:58.552Z,13.85
2022-10-23T13:23:32.526Z,2.40
2022-10-23T13:26:06.097Z,3.22
2022-10-23T13:28:43.378Z,3.38
2022-10-23T13:31:27.373Z,2.85
2022-10-23T13:34:15.957Z,2.75
2022-10-23T13:36:58.639Z,3.92
2022-10-23T13:39:32.371Z,2.35
2022-10-23T13:42:13.195Z,3.45
2022-10-23T13:44:44.945Z,3.45
2022-10-23T13:47:17.408Z,2.70
2022-10-23T13:49:49.310Z,3.70
2022-10-23T13:52:23.741Z,2.85
2022-10-23T13:54:55.547Z,2.78
2022-10-23T13:57:27.370Z,3.75
2022-10-23T13:59:59.138Z,2.15
2022-10-23T14:02:31.028Z,3.95
2022-10-23T14:05:03.026Z,2.97
2022-10-23T14:07:38.836Z,3.88
2022-10-23T14:10:10.625Z,3.15
2022-10-23T14:12:43.610Z,3.10
2022-10-23T14:15:15.892Z,4.65
2022-10-23T14:17:48.081Z,2.78
2022-10-23T14:20:21.426Z,4.27
2022-10-23T14:22:56.485Z,5.28
2022-10-23T14:25:28.373Z,3.72
2022-10-23T14:28:00.287Z,3.63
2022-10-23T14:30:32.134Z,3.75
2022-10-23T14:33:04.115Z,2.97
2022-10-23T14:35:39.418Z,3.35
2022-10-23T14:38:12.577Z,3.42
2022-10-23T14:43:16.048Z,4.50
2022-10-23T14:45:47.842Z,1.95
2022-10-23T14:48:19.702Z,4.82
2022-10-23T14:50:51.527Z,3.45
2022-10-23T14:53:24.611Z,2.38
2022-10-23T14:56:01.503Z,2.20
2022-10-23T14:58:33.239Z,2.60
2022-10-23T15:01:05.269Z,4.32
2022-10-23T15:03:37.277Z,6.10
2022-10-23T15:06:09.154Z,3.72
2022-10-23T15:08:42.535Z,2.20
2022-10-23T15:11:14.443Z,1.85
2022-10-23T15:13:46.258Z,3.42
2022-10-23T15:16:18.276Z,4.03
2022-10-23T15:18:50.498Z,3.55
2022-10-23T15:21:22.353Z,17.95
2022-10-23T15:23:55.521Z,17.85
2022-10-23T15:29:00.842Z,2.65
2022-10-23T15:31:44.073Z,4.80
2022-10-23T15:34:17.802Z,2.83
2022-10-23T15:36:50.180Z,3.47
2022-10-23T15:39:25.389Z,7.97
2022-10-23T15:41:57.397Z,4.72
2022-10-23T15:44:32.233Z,4.38
2022-10-23T15:47:04.128Z,4.63
2022-10-23T15:49:36.896Z,5.35
2022-10-23T15:54:48.486Z,6.22
2022-10-23T15:57:20.267Z,8.48
2022-10-23T15:59:52.092Z,8.80
2022-10-23T16:02:24.019Z,4.43
2022-10-23T16:04:55.838Z,4.65
2022-10-23T16:07:27.871Z,4.10
2022-10-23T16:10:01.227Z,3.03
2022-10-23T16:12:33.317Z,3.05
2022-10-23T16:15:07.860Z,2.45
2022-10-23T16:17:39.712Z,4.22
2022-10-23T16:20:11.858Z,3.78
2022-10-23T16:22:45.094Z,3.65
2022-10-23T16:27:50.044Z,2.63
2022-10-23T16:30:22.821Z,4.00
2022-10-23T16:32:55.049Z,3.10
2022-10-23T16:35:26.887Z,3.05
2022-10-23T16:37:58.701Z,2.67
2022-10-23T16:40:31.911Z,3.60
2022-10-23T16:45:37.102Z,2.72
2022-10-23T16:48:09.765Z,2.80
2022-10-23T16:50:41.879Z,5.95
2022-10-23T16:53:13.677Z,1.85
2022-10-23T16:55:46.846Z,1.63
2022-10-23T16:58:18.642Z,2.88
2022-10-23T17:00:58.154Z,5.75
2022-10-23T17:03:30.663Z,6.60
2022-10-23T17:06:06.165Z,3.08
2022-10-23T17:08:41.285Z,2.47
2022-10-23T17:11:16.767Z,3.13
2022-10-23T17:13:52.515Z,3.47
2022-10-23T17:16:29.131Z,2.28
2022-10-23T17:19:01.786Z,1.23
2022-10-23T17:21:35.276Z,1.50
2022-10-23T17:24:08.253Z,4.50
2022-10-23T17:26:42.137Z,3.13
2022-10-23T17:29:15.124Z,4.50
2022-10-23T17:31:49.293Z,2.58
2022-10-23T17:34:23.218Z,4.50
2022-10-23T17:36:55.747Z,4.95
2022-10-23T17:39:29.366Z,2.92
2022-10-23T17:42:02.655Z,3.40
2022-10-23T17:47:06.200Z,6.20
2022-10-23T17:49:39.641Z,2.72
2022-10-23T17:52:14.931Z,2.10
2022-10-23T17:57:19.759Z,4.35
2022-10-23T18:02:23.353Z,6.05
2022-10-23T18:04:55.175Z,3.97
2022-10-23T18:07:27.061Z,3.58
2022-10-23T18:09:58.860Z,3.80
2022-10-23T18:12:32.093Z,14.75
2022-10-23T18:17:35.730Z,10.98
2022-10-23T18:20:08.331Z,9.35
2022-10-23T18:22:40.259Z,11.75
2022-10-23T18:25:12.175Z,12.20
2022-10-23T18:30:25.742Z,10.20
2022-10-23T18:32:58.161Z,7.63
2022-10-23T18:35:33.782Z,15.07
2022-10-23T18:38:05.566Z,10.45
2022-10-23T18:40:38.657Z,14.18
2022-10-23T18:43:14.912Z,9.30
2022-10-23T18:45:53.078Z,7.15
2022-10-23T18:48:24.905Z,8.30
2022-10-23T18:50:57.090Z,10.77
2022-10-23T18:53:29.088Z,9.00
2022-10-23T18:56:00.879Z,7.03
2022-10-23T18:58:32.710Z,28.70
2022-10-23T19:01:06.179Z,37.95
2022-10-23T19:03:38.051Z,11.73
2022-10-23T19:06:09.878Z,12.23
2022-10-23T19:08:44.444Z,10.63
2022-10-23T19:11:17.865Z,7.35
2022-10-23T19:13:50.122Z,10.77
2022-10-23T19:16:27.318Z,11.55
2022-10-23T19:19:01.696Z,9.85
2022-10-23T19:21:36.524Z,8.48
2022-10-23T19:24:11.311Z,13.77
2022-10-23T19:26:44.015Z,7.97
2022-10-23T19:29:19.901Z,12.35
2022-10-23T19:31:54.053Z,8.05
2022-10-23T19:34:26.161Z,10.50
2022-10-23T19:36:58.005Z,17.95
2022-10-23T19:39:29.963Z,8.07
2022-10-23T19:42:01.942Z,9.15
2022-10-23T19:44:33.879Z,10.57
2022-10-23T19:47:07.072Z,8.02
2022-10-23T19:49:39.050Z,9.25
2022-10-23T19:52:10.862Z,12.45
2022-10-23T19:54:42.828Z,9.52
2022-10-23T19:57:17.049Z,11.50
2022-10-23T19:59:52.254Z,7.90
2022-10-23T20:02:25.750Z,7.70
2022-10-23T20:04:57.728Z,8.98
2022-10-23T20:07:29.628Z,11.07
2022-10-23T20:10:01.644Z,12.25
2022-10-23T20:12:33.503Z,6.72
2022-10-23T20:15:06.277Z,7.80
2022-10-23T20:17:42.029Z,6.28
2022-10-23T20:20:13.907Z,10.60
2022-10-23T20:22:46.079Z,12.98
2022-10-23T20:25:18.435Z,9.07
2022-10-23T20:27:50.187Z,12.27
2022-10-23T20:30:22.047Z,8.75
2022-10-23T20:32:55.677Z,9.63
2022-10-23T20:35:27.592Z,13.80
2022-10-23T20:37:59.370Z,11.82
2022-10-23T20:40:31.246Z,11.40
2022-10-23T20:43:03.479Z,8.35
2022-10-23T20:45:37.185Z,8.63
2022-10-23T20:48:10.385Z,7.20
2022-10-23T20:50:47.556Z,8.20
2022-10-23T20:53:19.309Z,9.32
2022-10-23T20:55:51.628Z,8.40
2022-10-23T20:58:23.526Z,10.23
2022-10-23T21:00:57.298Z,13.02
2022-10-23T21:03:32.688Z,6.07
2022-10-23T21:06:09.677Z,8.70
2022-10-23T21:08:42.241Z,7.68
2022-10-23T21:11:15.515Z,11.40
2022-10-23T21:16:27.602Z,10.77
2022-10-23T21:19:03.675Z,9.95
2022-10-23T21:21:35.766Z,10.93
2022-10-23T21:24:15.565Z,10.77
2022-10-23T21:26:48.135Z,11.48
2022-10-23T21:29:23.160Z,10.67
2022-10-23T21:31:56.302Z,15.88
2022-10-23T21:34:29.780Z,8.15
2022-10-23T21:37:18.128Z,11.63
2022-10-23T21:39:50.099Z,15.07
2022-10-23T21:42:22.206Z,14.10
2022-10-23T21:44:58.771Z,10.30
2022-10-23T21:47:33.736Z,8.32
2022-10-23T21:50:07.666Z,11.43
2022-10-23T21:52:40.250Z,10.43
2022-10-23T21:55:16.797Z,10.63
2022-10-23T21:57:48.781Z,7.40
2022-10-23T22:00:21.560Z,9.13
2022-10-23T22:02:53.393Z,9.98
2022-10-23T22:05:26.793Z,11.57
2022-10-23T22:08:01.783Z,10.45
2022-10-23T22:10:35.137Z,10.23
2022-10-23T22:13:08.089Z,10.85
2022-10-23T22:15:42.683Z,11.15
2022-10-23T22:18:14.615Z,8.13
2022-10-23T22:20:47.746Z,7.25
2022-10-23T22:23:19.524Z,11.55
2022-10-23T22:25:51.303Z,10.68
2022-10-23T22:28:23.398Z,9.60
2022-10-23T22:30:55.240Z,5.53
2022-10-23T22:33:27.310Z,13.07
2022-10-23T22:36:06.991Z,6.38
2022-10-23T22:38:39.082Z,6.28
2022-10-23T22:41:11.548Z,8.35
2022-10-23T22:43:43.409Z,10.83
2022-10-23T22:46:21.014Z,13.32
2022-10-23T22:48:53.302Z,10.77
2022-10-23T22:51:28.016Z,12.95
2022-10-23T22:54:00.525Z,14.90
2022-10-23T22:56:32.636Z,14.73
2022-10-23T22:59:05.056Z,11.75
2022-10-23T23:01:39.233Z,12.87
2022-10-23T23:04:32.918Z,14.43
2022-10-23T23:07:05.828Z,12.27
2022-10-23T23:09:39.033Z,17.65
2022-10-23T23:12:13.440Z,15.27
2022-10-23T23:14:45.496Z,13.68
2022-10-23T23:17:17.302Z,14.63
2022-10-23T23:19:49.137Z,13.95
2022-10-23T23:22:22.370Z,15.10
2022-10-23T23:24:54.440Z,14.38
2022-10-23T23:27:27.207Z,18.25
2022-10-23T23:29:58.988Z,13.70
2022-10-23T23:32:30.847Z,16.38
2022-10-23T23:35:03.204Z,11.35
2022-10-23T23:37:36.326Z,10.85
2022-10-23T23:40:09.116Z,16.40
2022-10-23T23:42:40.957Z,11.27
2022-10-23T23:45:15.060Z,12.20
2022-10-23T23:47:47.315Z,10.70
2022-10-23T23:50:19.570Z,16.65
2022-10-23T23:52:52.696Z,9.15
2022-10-23T23:55:24.473Z,10.48
2022-10-23T23:57:56.445Z,13.18
